Terminal Aerodrome Forecast
Issued by NWS

Home | Current Version | Previous Version | Text Only | Print | Product List | Glossary On
Versions: 1 2 3 4 5 6 7 8 9 10 11 12 13 14 15 16 17 18 19 20
000
FTUS41 KPBZ 010500
TAFLBE
TAF
KLBE 010520Z 0106/0206 VRB05KT P6SM OVC080
     FM010900 VRB03KT 2SM -SN OVC025
     FM011200 VRB03KT 3/4SM -SN OVC010
     FM011700 21005KT 1SM -SN OVC010=

USA.gov is the U.S. government's official web portal to all federal, state and local government web resources and services.